sensor_id;sensor_type;location;lat;lon;timestamp;P1;durP1;ratioP1;P2;durP2;ratioP2
9834;SDS011;69850;50.942;13.748;2024-03-02T00:02:26;98.47;;;49.55;;
9834;SDS011;69850;50.942;13.748;2024-03-02T00:05:50;94.78;;;50.03;;
9834;SDS011;69850;50.942;13.748;2024-03-02T00:09:11;95.43;;;48.92;;
9834;SDS011;69850;50.942;13.748;2024-03-02T00:12:32;91.88;;;50.15;;
9834;SDS011;69850;50.942;13.748;2024-03-02T00:15:54;92.85;;;49.20;;
9834;SDS011;69850;50.942;13.748;2024-03-02T00:19:15;96.43;;;51.00;;
9834;SDS011;69850;50.942;13.748;2024-03-02T00:22:36;94.07;;;50.17;;
9834;SDS011;69850;50.942;13.748;2024-03-02T00:25:57;86.72;;;49.53;;
9834;SDS011;69850;50.942;13.748;2024-03-02T00:29:18;87.47;;;46.67;;
9834;SDS011;69850;50.942;13.748;2024-03-02T00:32:42;83.90;;;45.75;;
9834;SDS011;69850;50.942;13.748;2024-03-02T00:36:03;95.53;;;49.65;;
9834;SDS011;69850;50.942;13.748;2024-03-02T00:39:24;93.47;;;49.50;;
9834;SDS011;69850;50.942;13.748;2024-03-02T00:42:45;97.57;;;49.72;;
9834;SDS011;69850;50.942;13.748;2024-03-02T00:46:06;104.63;;;52.53;;
9834;SDS011;69850;50.942;13.748;2024-03-02T00:49:26;116.07;;;53.22;;
9834;SDS011;69850;50.942;13.748;2024-03-02T00:52:48;131.55;;;56.33;;
9834;SDS011;69850;50.942;13.748;2024-03-02T00:56:09;121.63;;;55.67;;
9834;SDS011;69850;50.942;13.748;2024-03-02T00:59:31;104.97;;;50.72;;
9834;SDS011;69850;50.942;13.748;2024-03-02T01:02:52;102.68;;;50.72;;
9834;SDS011;69850;50.942;13.748;2024-03-02T01:06:12;101.63;;;51.15;;
9834;SDS011;69850;50.942;13.748;2024-03-02T01:09:33;97.00;;;51.40;;
9834;SDS011;69850;50.942;13.748;2024-03-02T01:12:54;98.97;;;49.88;;
9834;SDS011;69850;50.942;13.748;2024-03-02T01:16:14;97.50;;;49.70;;
9834;SDS011;69850;50.942;13.748;2024-03-02T01:19:35;113.63;;;54.92;;
9834;SDS011;69850;50.942;13.748;2024-03-02T01:22:56;115.05;;;53.80;;
9834;SDS011;69850;50.942;13.748;2024-03-02T01:26:17;100.55;;;49.80;;
9834;SDS011;69850;50.942;13.748;2024-03-02T01:29:37;98.20;;;48.80;;
9834;SDS011;69850;50.942;13.748;2024-03-02T01:32:58;111.95;;;52.42;;
9834;SDS011;69850;50.942;13.748;2024-03-02T01:36:20;99.15;;;50.47;;
9834;SDS011;69850;50.942;13.748;2024-03-02T01:39:41;112.63;;;52.60;;
9834;SDS011;69850;50.942;13.748;2024-03-02T01:43:01;113.30;;;53.92;;
9834;SDS011;69850;50.942;13.748;2024-03-02T01:46:22;133.43;;;59.72;;
9834;SDS011;69850;50.942;13.748;2024-03-02T01:49:43;134.85;;;58.97;;
9834;SDS011;69850;50.942;13.748;2024-03-02T01:53:03;119.78;;;55.28;;
9834;SDS011;69850;50.942;13.748;2024-03-02T01:56:24;106.10;;;52.45;;
9834;SDS011;69850;50.942;13.748;2024-03-02T01:59:45;107.35;;;52.38;;
9834;SDS011;69850;50.942;13.748;2024-03-02T02:03:08;102.38;;;52.35;;
9834;SDS011;69850;50.942;13.748;2024-03-02T02:06:28;108.28;;;53.33;;
9834;SDS011;69850;50.942;13.748;2024-03-02T02:09:49;114.35;;;53.15;;
9834;SDS011;69850;50.942;13.748;2024-03-02T02:13:10;111.57;;;53.58;;
9834;SDS011;69850;50.942;13.748;2024-03-02T02:16:30;121.22;;;54.28;;
9834;SDS011;69850;50.942;13.748;2024-03-02T02:19:51;112.55;;;52.83;;
9834;SDS011;69850;50.942;13.748;2024-03-02T02:23:12;141.63;;;58.05;;
9834;SDS011;69850;50.942;13.748;2024-03-02T02:26:33;138.38;;;57.97;;
9834;SDS011;69850;50.942;13.748;2024-03-02T02:29:54;142.68;;;58.05;;
9834;SDS011;69850;50.942;13.748;2024-03-02T02:33:16;150.60;;;58.25;;
9834;SDS011;69850;50.942;13.748;2024-03-02T02:36:39;135.35;;;57.05;;
9834;SDS011;69850;50.942;13.748;2024-03-02T02:40:00;117.95;;;53.97;;
9834;SDS011;69850;50.942;13.748;2024-03-02T02:43:21;116.38;;;52.70;;
9834;SDS011;69850;50.942;13.748;2024-03-02T02:46:42;114.57;;;53.70;;
9834;SDS011;69850;50.942;13.748;2024-03-02T02:50:03;111.70;;;50.67;;
9834;SDS011;69850;50.942;13.748;2024-03-02T02:53:24;112.95;;;53.22;;
9834;SDS011;69850;50.942;13.748;2024-03-02T02:56:44;110.05;;;53.25;;
9834;SDS011;69850;50.942;13.748;2024-03-02T03:00:06;111.07;;;52.13;;
9834;SDS011;69850;50.942;13.748;2024-03-02T03:03:31;115.28;;;52.80;;
9834;SDS011;69850;50.942;13.748;2024-03-02T03:06:51;114.72;;;53.55;;
9834;SDS011;69850;50.942;13.748;2024-03-02T03:10:12;110.63;;;51.85;;
9834;SDS011;69850;50.942;13.748;2024-03-02T03:13:33;113.10;;;51.42;;
9834;SDS011;69850;50.942;13.748;2024-03-02T03:16:54;108.18;;;50.50;;
9834;SDS011;69850;50.942;13.748;2024-03-02T03:20:15;111.45;;;50.50;;
9834;SDS011;69850;50.942;13.748;2024-03-02T03:23:36;104.55;;;49.30;;
9834;SDS011;69850;50.942;13.748;2024-03-02T03:26:56;95.93;;;47.42;;
9834;SDS011;69850;50.942;13.748;2024-03-02T03:30:17;94.75;;;46.65;;
9834;SDS011;69850;50.942;13.748;2024-03-02T03:33:38;96.05;;;45.95;;
9834;SDS011;69850;50.942;13.748;2024-03-02T03:36:58;89.88;;;44.83;;
9834;SDS011;69850;50.942;13.748;2024-03-02T03:40:19;111.80;;;48.75;;
9834;SDS011;69850;50.942;13.748;2024-03-02T03:43:40;109.13;;;50.00;;
9834;SDS011;69850;50.942;13.748;2024-03-02T03:47:00;114.65;;;49.85;;
9834;SDS011;69850;50.942;13.748;2024-03-02T03:50:22;108.82;;;49.65;;
9834;SDS011;69850;50.942;13.748;2024-03-02T03:53:43;112.78;;;49.05;;
9834;SDS011;69850;50.942;13.748;2024-03-02T03:57:04;97.25;;;46.05;;
9834;SDS011;69850;50.942;13.748;2024-03-02T04:00:25;110.65;;;49.05;;
9834;SDS011;69850;50.942;13.748;2024-03-02T04:03:45;108.18;;;50.10;;
9834;SDS011;69850;50.942;13.748;2024-03-02T04:07:06;92.55;;;44.70;;
9834;SDS011;69850;50.942;13.748;2024-03-02T04:10:26;103.50;;;48.03;;
9834;SDS011;69850;50.942;13.748;2024-03-02T04:13:47;103.65;;;46.83;;
9834;SDS011;69850;50.942;13.748;2024-03-02T04:17:07;88.07;;;43.38;;
9834;SDS011;69850;50.942;13.748;2024-03-02T04:20:28;99.20;;;45.63;;
9834;SDS011;69850;50.942;13.748;2024-03-02T04:23:50;103.53;;;45.25;;
9834;SDS011;69850;50.942;13.748;2024-03-02T04:27:10;99.43;;;44.75;;
9834;SDS011;69850;50.942;13.748;2024-03-02T04:30:31;90.65;;;42.58;;
9834;SDS011;69850;50.942;13.748;2024-03-02T04:33:52;84.32;;;40.53;;
9834;SDS011;69850;50.942;13.748;2024-03-02T04:37:12;89.00;;;41.72;;
9834;SDS011;69850;50.942;13.748;2024-03-02T04:40:34;90.38;;;41.03;;
9834;SDS011;69850;50.942;13.748;2024-03-02T04:43:55;90.10;;;41.03;;
9834;SDS011;69850;50.942;13.748;2024-03-02T04:47:17;98.47;;;43.25;;
9834;SDS011;69850;50.942;13.748;2024-03-02T04:50:38;91.18;;;42.72;;
9834;SDS011;69850;50.942;13.748;2024-03-02T04:53:58;109.88;;;48.45;;
9834;SDS011;69850;50.942;13.748;2024-03-02T04:57:19;108.75;;;49.90;;
9834;SDS011;69850;50.942;13.748;2024-03-02T05:00:40;89.35;;;42.63;;
9834;SDS011;69850;50.942;13.748;2024-03-02T05:04:00;89.63;;;42.85;;
9834;SDS011;69850;50.942;13.748;2024-03-02T05:07:21;80.88;;;41.22;;
9834;SDS011;69850;50.942;13.748;2024-03-02T05:10:42;86.15;;;40.67;;
9834;SDS011;69850;50.942;13.748;2024-03-02T05:14:03;88.07;;;43.03;;
9834;SDS011;69850;50.942;13.748;2024-03-02T05:17:24;85.38;;;41.70;;
9834;SDS011;69850;50.942;13.748;2024-03-02T05:20:44;80.13;;;39.88;;
9834;SDS011;69850;50.942;13.748;2024-03-02T05:24:05;81.93;;;40.78;;
9834;SDS011;69850;50.942;13.748;2024-03-02T05:27:26;81.82;;;40.05;;
9834;SDS011;69850;50.942;13.748;2024-03-02T05:30:47;80.28;;;40.75;;
9834;SDS011;69850;50.942;13.748;2024-03-02T05:34:08;75.15;;;38.45;;
9834;SDS011;69850;50.942;13.748;2024-03-02T05:37:28;72.82;;;37.50;;
9834;SDS011;69850;50.942;13.748;2024-03-02T05:40:49;79.93;;;40.33;;
9834;SDS011;69850;50.942;13.748;2024-03-02T05:44:09;80.65;;;41.03;;
9834;SDS011;69850;50.942;13.748;2024-03-02T05:47:30;78.70;;;41.10;;
9834;SDS011;69850;50.942;13.748;2024-03-02T05:50:50;316.25;;;190.05;;
9834;SDS011;69850;50.942;13.748;2024-03-02T05:54:11;78.80;;;39.55;;
9834;SDS011;69850;50.942;13.748;2024-03-02T05:57:32;83.75;;;43.85;;
9834;SDS011;69850;50.942;13.748;2024-03-02T06:01:04;81.95;;;41.72;;
9834;SDS011;69850;50.942;13.748;2024-03-02T06:04:25;78.53;;;39.88;;
9834;SDS011;69850;50.942;13.748;2024-03-02T06:07:46;78.63;;;41.85;;
9834;SDS011;69850;50.942;13.748;2024-03-02T06:11:07;70.63;;;38.60;;
9834;SDS011;69850;50.942;13.748;2024-03-02T06:14:27;83.13;;;42.78;;
9834;SDS011;69850;50.942;13.748;2024-03-02T06:17:48;77.75;;;39.72;;
9834;SDS011;69850;50.942;13.748;2024-03-02T06:21:08;85.15;;;43.08;;
9834;SDS011;69850;50.942;13.748;2024-03-02T06:24:29;95.97;;;48.03;;
9834;SDS011;69850;50.942;13.748;2024-03-02T06:27:49;87.18;;;44.42;;
9834;SDS011;69850;50.942;13.748;2024-03-02T06:31:10;77.93;;;42.60;;
9834;SDS011;69850;50.942;13.748;2024-03-02T06:34:31;70.82;;;39.40;;
9834;SDS011;69850;50.942;13.748;2024-03-02T06:37:51;78.18;;;42.85;;
9834;SDS011;69850;50.942;13.748;2024-03-02T06:41:12;78.15;;;40.75;;
9834;SDS011;69850;50.942;13.748;2024-03-02T06:44:32;76.10;;;41.75;;
9834;SDS011;69850;50.942;13.748;2024-03-02T06:47:54;70.13;;;37.90;;
9834;SDS011;69850;50.942;13.748;2024-03-02T06:51:15;67.00;;;37.05;;
9834;SDS011;69850;50.942;13.748;2024-03-02T06:54:36;65.43;;;36.90;;
9834;SDS011;69850;50.942;13.748;2024-03-02T06:57:57;73.40;;;38.97;;
9834;SDS011;69850;50.942;13.748;2024-03-02T07:01:17;64.03;;;36.15;;
9834;SDS011;69850;50.942;13.748;2024-03-02T07:04:38;72.53;;;38.05;;
9834;SDS011;69850;50.942;13.748;2024-03-02T07:07:58;65.72;;;36.53;;
9834;SDS011;69850;50.942;13.748;2024-03-02T07:11:19;69.20;;;37.17;;
9834;SDS011;69850;50.942;13.748;2024-03-02T07:14:40;59.22;;;34.60;;
9834;SDS011;69850;50.942;13.748;2024-03-02T07:18:19;208.65;;;101.40;;
9834;SDS011;69850;50.942;13.748;2024-03-02T07:21:40;103.43;;;54.53;;
9834;SDS011;69850;50.942;13.748;2024-03-02T07:25:02;69.38;;;36.38;;
9834;SDS011;69850;50.942;13.748;2024-03-02T07:28:23;57.95;;;32.35;;
9834;SDS011;69850;50.942;13.748;2024-03-02T07:31:44;109.78;;;56.42;;
9834;SDS011;69850;50.942;13.748;2024-03-02T07:35:04;54.67;;;32.78;;
9834;SDS011;69850;50.942;13.748;2024-03-02T07:38:25;53.38;;;32.08;;
9834;SDS011;69850;50.942;13.748;2024-03-02T07:41:46;50.67;;;30.33;;
9834;SDS011;69850;50.942;13.748;2024-03-02T07:45:07;56.78;;;36.05;;
9834;SDS011;69850;50.942;13.748;2024-03-02T07:48:27;47.95;;;30.40;;
9834;SDS011;69850;50.942;13.748;2024-03-02T07:51:48;48.67;;;30.20;;
9834;SDS011;69850;50.942;13.748;2024-03-02T07:55:09;48.65;;;29.48;;
9834;SDS011;69850;50.942;13.748;2024-03-02T07:58:29;46.60;;;29.67;;
9834;SDS011;69850;50.942;13.748;2024-03-02T08:01:51;50.88;;;29.15;;
9834;SDS011;69850;50.942;13.748;2024-03-02T08:05:11;45.65;;;28.63;;
9834;SDS011;69850;50.942;13.748;2024-03-02T08:08:32;50.28;;;30.27;;
9834;SDS011;69850;50.942;13.748;2024-03-02T08:11:53;52.22;;;31.17;;
9834;SDS011;69850;50.942;13.748;2024-03-02T08:15:13;54.05;;;32.08;;
9834;SDS011;69850;50.942;13.748;2024-03-02T08:18:34;48.78;;;31.08;;
9834;SDS011;69850;50.942;13.748;2024-03-02T08:21:55;51.30;;;30.92;;
9834;SDS011;69850;50.942;13.748;2024-03-02T08:25:15;48.70;;;31.98;;
9834;SDS011;69850;50.942;13.748;2024-03-02T08:28:37;48.38;;;31.80;;
9834;SDS011;69850;50.942;13.748;2024-03-02T08:31:57;47.58;;;31.00;;
9834;SDS011;69850;50.942;13.748;2024-03-02T08:35:18;44.75;;;29.83;;
9834;SDS011;69850;50.942;13.748;2024-03-02T08:38:38;41.40;;;28.60;;
9834;SDS011;69850;50.942;13.748;2024-03-02T08:41:59;40.72;;;27.30;;
9834;SDS011;69850;50.942;13.748;2024-03-02T08:45:21;36.33;;;24.08;;
9834;SDS011;69850;50.942;13.748;2024-03-02T08:48:41;36.80;;;25.15;;
9834;SDS011;69850;50.942;13.748;2024-03-02T08:52:02;36.35;;;23.00;;
9834;SDS011;69850;50.942;13.748;2024-03-02T08:55:22;33.85;;;21.17;;
9834;SDS011;69850;50.942;13.748;2024-03-02T08:58:43;31.05;;;22.15;;
9834;SDS011;69850;50.942;13.748;2024-03-02T09:02:04;34.53;;;22.80;;
9834;SDS011;69850;50.942;13.748;2024-03-02T09:05:25;27.33;;;18.92;;
9834;SDS011;69850;50.942;13.748;2024-03-02T09:08:45;32.15;;;22.42;;
9834;SDS011;69850;50.942;13.748;2024-03-02T09:12:06;31.50;;;22.40;;
9834;SDS011;69850;50.942;13.748;2024-03-02T09:15:27;27.10;;;19.02;;
9834;SDS011;69850;50.942;13.748;2024-03-02T09:18:48;19.83;;;14.82;;
9834;SDS011;69850;50.942;13.748;2024-03-02T09:22:08;17.42;;;12.75;;
9834;SDS011;69850;50.942;13.748;2024-03-02T09:25:30;18.92;;;13.18;;
9834;SDS011;69850;50.942;13.748;2024-03-02T09:28:50;18.83;;;13.00;;
9834;SDS011;69850;50.942;13.748;2024-03-02T09:32:14;20.05;;;13.23;;
9834;SDS011;69850;50.942;13.748;2024-03-02T09:35:35;17.10;;;12.77;;
9834;SDS011;69850;50.942;13.748;2024-03-02T09:38:56;19.23;;;12.82;;
9834;SDS011;69850;50.942;13.748;2024-03-02T09:42:17;18.20;;;12.65;;
9834;SDS011;69850;50.942;13.748;2024-03-02T09:45:37;18.63;;;13.23;;
9834;SDS011;69850;50.942;13.748;2024-03-02T09:48:58;16.88;;;12.50;;
9834;SDS011;69850;50.942;13.748;2024-03-02T09:52:19;16.65;;;12.10;;
9834;SDS011;69850;50.942;13.748;2024-03-02T09:55:39;14.57;;;9.57;;
9834;SDS011;69850;50.942;13.748;2024-03-02T09:59:04;15.43;;;10.65;;
9834;SDS011;69850;50.942;13.748;2024-03-02T10:02:25;15.50;;;10.90;;
9834;SDS011;69850;50.942;13.748;2024-03-02T10:05:45;14.77;;;10.75;;
9834;SDS011;69850;50.942;13.748;2024-03-02T10:09:06;13.88;;;10.27;;
9834;SDS011;69850;50.942;13.748;2024-03-02T10:12:27;14.75;;;10.20;;
9834;SDS011;69850;50.942;13.748;2024-03-02T10:15:48;14.00;;;10.68;;
9834;SDS011;69850;50.942;13.748;2024-03-02T10:19:23;15.15;;;10.52;;
9834;SDS011;69850;50.942;13.748;2024-03-02T10:22:44;14.68;;;9.98;;
9834;SDS011;69850;50.942;13.748;2024-03-02T10:26:17;14.63;;;10.02;;
9834;SDS011;69850;50.942;13.748;2024-03-02T10:29:41;14.70;;;10.40;;
9834;SDS011;69850;50.942;13.748;2024-03-02T10:33:02;15.88;;;10.73;;
9834;SDS011;69850;50.942;13.748;2024-03-02T10:36:23;16.63;;;11.55;;
9834;SDS011;69850;50.942;13.748;2024-03-02T10:39:43;20.30;;;12.10;;
9834;SDS011;69850;50.942;13.748;2024-03-02T10:43:06;22.55;;;12.60;;
9834;SDS011;69850;50.942;13.748;2024-03-02T10:46:28;18.45;;;11.90;;
9834;SDS011;69850;50.942;13.748;2024-03-02T10:49:50;23.52;;;11.93;;
9834;SDS011;69850;50.942;13.748;2024-03-02T10:53:11;21.00;;;12.18;;
9834;SDS011;69850;50.942;13.748;2024-03-02T10:56:33;19.45;;;11.60;;
9834;SDS011;69850;50.942;13.748;2024-03-02T10:59:59;22.25;;;11.98;;
9834;SDS011;69850;50.942;13.748;2024-03-02T11:03:23;22.67;;;11.45;;
9834;SDS011;69850;50.942;13.748;2024-03-02T11:06:50;22.95;;;12.57;;
9834;SDS011;69850;50.942;13.748;2024-03-02T11:10:11;19.05;;;11.40;;
9834;SDS011;69850;50.942;13.748;2024-03-02T11:13:33;17.17;;;11.02;;
9834;SDS011;69850;50.942;13.748;2024-03-02T11:16:54;20.05;;;11.45;;
9834;SDS011;69850;50.942;13.748;2024-03-02T11:20:15;17.95;;;11.77;;
9834;SDS011;69850;50.942;13.748;2024-03-02T11:23:35;18.95;;;10.98;;
9834;SDS011;69850;50.942;13.748;2024-03-02T11:26:56;16.00;;;10.98;;
9834;SDS011;69850;50.942;13.748;2024-03-02T11:33:53;18.83;;;11.45;;
9834;SDS011;69850;50.942;13.748;2024-03-02T11:37:14;14.88;;;9.93;;
9834;SDS011;69850;50.942;13.748;2024-03-02T11:40:36;17.77;;;11.10;;
9834;SDS011;69850;50.942;13.748;2024-03-02T11:43:59;19.52;;;10.18;;
9834;SDS011;69850;50.942;13.748;2024-03-02T11:47:20;17.77;;;10.18;;
9834;SDS011;69850;50.942;13.748;2024-03-02T11:50:47;17.38;;;10.32;;
9834;SDS011;69850;50.942;13.748;2024-03-02T11:54:10;21.33;;;10.98;;
9834;SDS011;69850;50.942;13.748;2024-03-02T11:57:32;18.05;;;11.07;;
9834;SDS011;69850;50.942;13.748;2024-03-02T12:00:53;18.15;;;10.90;;
9834;SDS011;69850;50.942;13.748;2024-03-02T12:04:15;15.27;;;8.93;;
9834;SDS011;69850;50.942;13.748;2024-03-02T12:07:36;15.88;;;9.77;;
9834;SDS011;69850;50.942;13.748;2024-03-02T12:10:58;16.65;;;9.85;;
9834;SDS011;69850;50.942;13.748;2024-03-02T12:14:19;17.42;;;9.60;;
9834;SDS011;69850;50.942;13.748;2024-03-02T12:17:40;17.02;;;9.57;;
9834;SDS011;69850;50.942;13.748;2024-03-02T12:21:00;17.15;;;10.00;;
9834;SDS011;69850;50.942;13.748;2024-03-02T12:24:23;22.45;;;11.15;;
9834;SDS011;69850;50.942;13.748;2024-03-02T12:27:45;20.83;;;12.77;;
9834;SDS011;69850;50.942;13.748;2024-03-02T12:31:06;26.23;;;13.98;;
9834;SDS011;69850;50.942;13.748;2024-03-02T12:34:28;24.45;;;14.73;;
9834;SDS011;69850;50.942;13.748;2024-03-02T12:37:49;21.52;;;13.77;;
9834;SDS011;69850;50.942;13.748;2024-03-02T12:41:10;23.80;;;14.13;;
9834;SDS011;69850;50.942;13.748;2024-03-02T12:44:31;25.25;;;14.85;;
9834;SDS011;69850;50.942;13.748;2024-03-02T12:47:51;26.88;;;13.88;;
9834;SDS011;69850;50.942;13.748;2024-03-02T12:51:12;26.25;;;15.00;;
9834;SDS011;69850;50.942;13.748;2024-03-02T12:54:33;23.27;;;12.90;;
9834;SDS011;69850;50.942;13.748;2024-03-02T12:57:53;23.23;;;13.55;;
9834;SDS011;69850;50.942;13.748;2024-03-02T13:01:14;21.48;;;12.75;;
9834;SDS011;69850;50.942;13.748;2024-03-02T13:04:38;28.10;;;13.82;;
9834;SDS011;69850;50.942;13.748;2024-03-02T13:08:00;28.25;;;14.50;;
9834;SDS011;69850;50.942;13.748;2024-03-02T13:11:23;25.40;;;14.43;;
9834;SDS011;69850;50.942;13.748;2024-03-02T13:14:48;24.98;;;14.27;;
9834;SDS011;69850;50.942;13.748;2024-03-02T13:18:10;23.02;;;14.23;;
9834;SDS011;69850;50.942;13.748;2024-03-02T13:21:31;29.63;;;16.42;;
9834;SDS011;69850;50.942;13.748;2024-03-02T13:24:52;30.38;;;17.02;;
9834;SDS011;69850;50.942;13.748;2024-03-02T13:28:17;29.65;;;16.83;;
9834;SDS011;69850;50.942;13.748;2024-03-02T13:31:37;30.55;;;17.23;;
9834;SDS011;69850;50.942;13.748;2024-03-02T13:34:58;32.20;;;17.27;;
9834;SDS011;69850;50.942;13.748;2024-03-02T13:38:19;29.88;;;16.52;;
9834;SDS011;69850;50.942;13.748;2024-03-02T13:41:40;29.80;;;17.23;;
9834;SDS011;69850;50.942;13.748;2024-03-02T13:45:01;29.92;;;17.23;;
9834;SDS011;69850;50.942;13.748;2024-03-02T13:48:21;31.42;;;17.45;;
9834;SDS011;69850;50.942;13.748;2024-03-02T13:51:42;31.45;;;18.52;;
9834;SDS011;69850;50.942;13.748;2024-03-02T13:55:06;33.38;;;18.23;;
9834;SDS011;69850;50.942;13.748;2024-03-02T13:58:27;32.95;;;17.67;;
9834;SDS011;69850;50.942;13.748;2024-03-02T14:01:48;36.53;;;19.85;;
9834;SDS011;69850;50.942;13.748;2024-03-02T14:05:08;37.15;;;20.58;;
9834;SDS011;69850;50.942;13.748;2024-03-02T14:08:32;39.15;;;21.30;;
9834;SDS011;69850;50.942;13.748;2024-03-02T14:11:54;36.67;;;20.20;;
9834;SDS011;69850;50.942;13.748;2024-03-02T14:15:15;36.38;;;20.30;;
9834;SDS011;69850;50.942;13.748;2024-03-02T14:18:36;34.30;;;19.50;;
9834;SDS011;69850;50.942;13.748;2024-03-02T14:21:57;35.80;;;19.52;;
9834;SDS011;69850;50.942;13.748;2024-03-02T14:25:19;35.10;;;19.75;;
9834;SDS011;69850;50.942;13.748;2024-03-02T14:28:39;35.38;;;19.23;;
9834;SDS011;69850;50.942;13.748;2024-03-02T14:32:00;34.97;;;19.98;;
9834;SDS011;69850;50.942;13.748;2024-03-02T14:35:21;31.33;;;18.70;;
9834;SDS011;69850;50.942;13.748;2024-03-02T14:38:42;37.85;;;19.45;;
9834;SDS011;69850;50.942;13.748;2024-03-02T14:42:03;33.10;;;17.67;;
9834;SDS011;69850;50.942;13.748;2024-03-02T14:45:24;32.78;;;18.55;;
9834;SDS011;69850;50.942;13.748;2024-03-02T14:48:45;33.65;;;17.38;;
9834;SDS011;69850;50.942;13.748;2024-03-02T14:52:06;30.80;;;17.40;;
9834;SDS011;69850;50.942;13.748;2024-03-02T14:55:27;33.13;;;17.05;;
9834;SDS011;69850;50.942;13.748;2024-03-02T14:58:49;35.67;;;18.52;;
9834;SDS011;69850;50.942;13.748;2024-03-02T15:02:11;31.85;;;16.83;;
9834;SDS011;69850;50.942;13.748;2024-03-02T15:05:31;30.15;;;16.80;;
9834;SDS011;69850;50.942;13.748;2024-03-02T15:08:52;27.88;;;17.42;;
9834;SDS011;69850;50.942;13.748;2024-03-02T15:12:14;30.35;;;17.00;;
9834;SDS011;69850;50.942;13.748;2024-03-02T15:15:35;31.25;;;16.25;;
9834;SDS011;69850;50.942;13.748;2024-03-02T15:18:56;29.42;;;16.95;;
9834;SDS011;69850;50.942;13.748;2024-03-02T15:22:16;31.50;;;16.42;;
9834;SDS011;69850;50.942;13.748;2024-03-02T15:25:37;26.42;;;17.25;;
9834;SDS011;69850;50.942;13.748;2024-03-02T15:28:58;28.00;;;17.10;;
9834;SDS011;69850;50.942;13.748;2024-03-02T15:32:19;34.17;;;17.55;;
9834;SDS011;69850;50.942;13.748;2024-03-02T15:35:40;28.13;;;16.45;;
9834;SDS011;69850;50.942;13.748;2024-03-02T15:39:01;29.38;;;16.88;;
9834;SDS011;69850;50.942;13.748;2024-03-02T15:42:22;31.00;;;18.15;;
9834;SDS011;69850;50.942;13.748;2024-03-02T15:45:46;31.13;;;17.45;;
9834;SDS011;69850;50.942;13.748;2024-03-02T15:49:07;31.23;;;18.52;;
9834;SDS011;69850;50.942;13.748;2024-03-02T15:52:28;31.23;;;19.92;;
9834;SDS011;69850;50.942;13.748;2024-03-02T15:55:49;32.40;;;18.85;;
9834;SDS011;69850;50.942;13.748;2024-03-02T15:59:09;34.67;;;20.02;;
9834;SDS011;69850;50.942;13.748;2024-03-02T16:02:30;36.47;;;20.08;;
9834;SDS011;69850;50.942;13.748;2024-03-02T16:05:51;37.38;;;20.88;;
9834;SDS011;69850;50.942;13.748;2024-03-02T16:09:11;37.72;;;21.05;;
9834;SDS011;69850;50.942;13.748;2024-03-02T16:12:32;37.97;;;21.40;;
9834;SDS011;69850;50.942;13.748;2024-03-02T16:15:53;33.03;;;20.58;;
9834;SDS011;69850;50.942;13.748;2024-03-02T16:19:13;39.70;;;22.27;;
9834;SDS011;69850;50.942;13.748;2024-03-02T16:22:34;33.65;;;21.00;;
9834;SDS011;69850;50.942;13.748;2024-03-02T16:25:55;38.33;;;21.83;;
9834;SDS011;69850;50.942;13.748;2024-03-02T16:29:15;34.90;;;21.50;;
9834;SDS011;69850;50.942;13.748;2024-03-02T16:32:36;36.65;;;23.02;;
9834;SDS011;69850;50.942;13.748;2024-03-02T16:35:56;36.78;;;21.73;;
9834;SDS011;69850;50.942;13.748;2024-03-02T16:39:17;32.90;;;20.92;;
9834;SDS011;69850;50.942;13.748;2024-03-02T16:42:38;33.40;;;19.60;;
9834;SDS011;69850;50.942;13.748;2024-03-02T16:45:58;34.50;;;20.20;;
9834;SDS011;69850;50.942;13.748;2024-03-02T16:49:19;32.05;;;20.25;;
9834;SDS011;69850;50.942;13.748;2024-03-02T16:52:40;31.08;;;19.45;;
9834;SDS011;69850;50.942;13.748;2024-03-02T16:56:00;31.33;;;19.83;;
9834;SDS011;69850;50.942;13.748;2024-03-02T16:59:21;37.95;;;19.98;;
9834;SDS011;69850;50.942;13.748;2024-03-02T17:02:42;32.38;;;19.83;;
9834;SDS011;69850;50.942;13.748;2024-03-02T17:06:02;32.72;;;21.42;;
9834;SDS011;69850;50.942;13.748;2024-03-02T17:09:23;109.93;;;47.20;;
9834;SDS011;69850;50.942;13.748;2024-03-02T17:12:44;91.57;;;42.33;;
9834;SDS011;69850;50.942;13.748;2024-03-02T17:16:04;88.40;;;45.05;;
9834;SDS011;69850;50.942;13.748;2024-03-02T17:19:25;44.50;;;25.85;;
9834;SDS011;69850;50.942;13.748;2024-03-02T17:22:46;35.78;;;22.55;;
9834;SDS011;69850;50.942;13.748;2024-03-02T17:26:06;38.75;;;22.92;;
9834;SDS011;69850;50.942;13.748;2024-03-02T17:29:27;36.67;;;22.75;;
9834;SDS011;69850;50.942;13.748;2024-03-02T17:32:48;36.35;;;21.63;;
9834;SDS011;69850;50.942;13.748;2024-03-02T17:36:08;40.42;;;22.73;;
9834;SDS011;69850;50.942;13.748;2024-03-02T17:39:29;34.95;;;22.05;;
9834;SDS011;69850;50.942;13.748;2024-03-02T17:42:49;34.20;;;21.30;;
9834;SDS011;69850;50.942;13.748;2024-03-02T17:46:10;32.13;;;21.48;;
9834;SDS011;69850;50.942;13.748;2024-03-02T17:49:31;38.35;;;22.90;;
9834;SDS011;69850;50.942;13.748;2024-03-02T17:52:52;44.42;;;25.23;;
9834;SDS011;69850;50.942;13.748;2024-03-02T17:56:12;39.33;;;23.90;;
9834;SDS011;69850;50.942;13.748;2024-03-02T17:59:33;44.22;;;25.98;;
9834;SDS011;69850;50.942;13.748;2024-03-02T18:02:53;50.75;;;28.52;;
9834;SDS011;69850;50.942;13.748;2024-03-02T18:06:14;49.33;;;29.27;;
9834;SDS011;69850;50.942;13.748;2024-03-02T18:09:35;44.92;;;26.48;;
9834;SDS011;69850;50.942;13.748;2024-03-02T18:12:55;41.35;;;25.75;;
9834;SDS011;69850;50.942;13.748;2024-03-02T18:16:16;42.28;;;25.02;;
9834;SDS011;69850;50.942;13.748;2024-03-02T18:19:38;41.85;;;24.45;;
9834;SDS011;69850;50.942;13.748;2024-03-02T18:22:59;41.47;;;25.67;;
9834;SDS011;69850;50.942;13.748;2024-03-02T18:26:20;48.60;;;27.27;;
9834;SDS011;69850;50.942;13.748;2024-03-02T18:29:40;44.30;;;26.17;;
9834;SDS011;69850;50.942;13.748;2024-03-02T18:33:01;43.85;;;26.00;;
9834;SDS011;69850;50.942;13.748;2024-03-02T18:36:23;49.10;;;27.85;;
9834;SDS011;69850;50.942;13.748;2024-03-02T18:39:44;48.25;;;26.48;;
9834;SDS011;69850;50.942;13.748;2024-03-02T18:43:05;40.90;;;24.10;;
9834;SDS011;69850;50.942;13.748;2024-03-02T18:46:26;40.92;;;23.88;;
9834;SDS011;69850;50.942;13.748;2024-03-02T18:49:46;41.55;;;22.85;;
9834;SDS011;69850;50.942;13.748;2024-03-02T18:53:07;41.47;;;23.42;;
9834;SDS011;69850;50.942;13.748;2024-03-02T18:56:28;37.40;;;22.13;;
9834;SDS011;69850;50.942;13.748;2024-03-02T18:59:48;39.53;;;23.15;;
9834;SDS011;69850;50.942;13.748;2024-03-02T19:03:09;39.67;;;23.30;;
9834;SDS011;69850;50.942;13.748;2024-03-02T19:06:30;40.47;;;23.35;;
9834;SDS011;69850;50.942;13.748;2024-03-02T19:09:50;42.03;;;23.13;;
9834;SDS011;69850;50.942;13.748;2024-03-02T19:13:11;43.40;;;25.10;;
9834;SDS011;69850;50.942;13.748;2024-03-02T19:16:31;43.45;;;24.75;;
9834;SDS011;69850;50.942;13.748;2024-03-02T19:19:52;41.25;;;23.83;;
9834;SDS011;69850;50.942;13.748;2024-03-02T19:23:12;42.53;;;25.48;;
9834;SDS011;69850;50.942;13.748;2024-03-02T19:26:34;45.80;;;25.15;;
9834;SDS011;69850;50.942;13.748;2024-03-02T19:29:54;46.67;;;26.50;;
9834;SDS011;69850;50.942;13.748;2024-03-02T19:33:15;45.65;;;26.52;;
9834;SDS011;69850;50.942;13.748;2024-03-02T19:36:37;43.38;;;24.73;;